Time;durP1;ratioP1;P1;durP2;ratioP2;P2;SDS_P1;SDS_P2;PMS_P1;PMS_P2;Temp;Humidity;BMP_temperature;BMP_pressure;BME280_temperature;BME280_humidity;BME280_pressure;Samples;Min_cycle;Max_cycle;Signal;HPM_P1;HPM_P2
2023/12/01 00:00:29;;;;;;;3.97;3.00;;;19.50;56.20;;;;;;4990687;28;20173;-69
2023/12/01 00:02:55;;;;;;;3.20;2.73;;;19.50;56.20;;;;;;4992125;28;20204;-69
2023/12/01 00:05:20;;;;;;;5.73;2.63;;;19.50;56.20;;;;;;4991014;28;20231;-69
2023/12/01 00:07:46;;;;;;;4.93;2.83;;;19.50;56.20;;;;;;4991666;28;20267;-69
2023/12/01 00:10:12;;;;;;;3.00;2.70;;;19.50;56.20;;;;;;4991846;28;20196;-69
2023/12/01 00:12:37;;;;;;;5.40;2.70;;;19.60;56.30;;;;;;4990088;28;20180;-68
2023/12/01 00:15:04;;;;;;;4.07;2.57;;;19.50;56.20;;;;;;4990229;28;20432;-69
2023/12/01 00:17:30;;;;;;;4.30;3.23;;;19.50;56.20;;;;;;4989505;28;20169;-69
2023/12/01 00:19:55;;;;;;;5.57;3.13;;;19.50;56.20;;;;;;4988645;28;21204;-69
2023/12/01 00:22:21;;;;;;;3.87;3.10;;;19.50;56.20;;;;;;4991044;28;20303;-69
2023/12/01 00:24:46;;;;;;;3.60;2.50;;;19.50;56.20;;;;;;4991766;28;20204;-69
2023/12/01 00:27:12;;;;;;;4.57;2.53;;;19.60;56.30;;;;;;4991585;28;20172;-69
2023/12/01 00:29:38;;;;;;;3.80;3.07;;;19.50;56.20;;;;;;4991552;28;20232;-69
2023/12/01 00:32:03;;;;;;;3.47;2.50;;;19.50;56.20;;;;;;4991455;28;20648;-68
2023/12/01 00:34:29;;;;;;;3.50;2.47;;;19.50;56.20;;;;;;4991321;28;20236;-69
2023/12/01 00:37:23;;;;;;;3.93;3.10;;;19.50;56.20;;;;;;4990057;28;20181;-69
2023/12/01 00:39:48;;;;;;;6.17;2.90;;;19.50;56.20;;;;;;4991321;28;20179;-68
2023/12/01 00:42:14;;;;;;;3.50;2.40;;;19.50;56.20;;;;;;4991369;28;20400;-69
2023/12/01 00:44:39;;;;;;;4.50;2.73;;;19.50;56.30;;;;;;4991212;28;20201;-68
2023/12/01 00:47:05;;;;;;;3.87;2.60;;;19.50;56.30;;;;;;4991239;28;20272;-69
2023/12/01 00:49:31;;;;;;;3.40;2.60;;;19.50;56.30;;;;;;4991243;28;20208;-69
2023/12/01 00:51:57;;;;;;;3.43;2.90;;;19.50;56.30;;;;;;4991135;28;20256;-69
2023/12/01 00:54:23;;;;;;;4.60;3.20;;;19.50;56.80;;;;;;4991030;28;20460;-69
2023/12/01 00:56:48;;;;;;;2.90;2.40;;;19.50;56.30;;;;;;4991146;28;20256;-68
2023/12/01 00:59:14;;;;;;;2.60;2.40;;;19.50;56.20;;;;;;4991072;28;20487;-68
2023/12/01 01:01:40;;;;;;;2.97;2.37;;;19.50;56.30;;;;;;4991042;28;20173;-69
2023/12/01 01:04:05;;;;;;;4.17;3.07;;;19.50;56.20;;;;;;4990896;28;20175;-70
2023/12/01 01:06:31;;;;;;;3.40;2.43;;;19.50;56.20;;;;;;4990967;28;20181;-69
2023/12/01 01:08:56;;;;;;;4.17;2.83;;;19.50;56.20;;;;;;4990903;28;20232;-69
2023/12/01 01:11:22;;;;;;;2.90;2.20;;;19.50;56.20;;;;;;4990854;28;20216;-69
2023/12/01 01:13:48;;;;;;;4.03;2.93;;;19.50;56.20;;;;;;4990759;28;20207;-68
2023/12/01 01:16:13;;;;;;;3.67;2.63;;;19.50;56.20;;;;;;4990715;28;20570;-69
2023/12/01 01:18:39;;;;;;;2.90;2.33;;;19.50;56.30;;;;;;4990811;28;20272;-68
2023/12/01 01:21:05;;;;;;;3.43;2.63;;;19.50;56.20;;;;;;4990810;28;20183;-69
2023/12/01 01:23:30;;;;;;;5.53;3.00;;;19.50;56.30;;;;;;4990786;28;20184;-69
2023/12/01 01:25:56;;;;;;;4.03;3.03;;;19.50;56.20;;;;;;4990604;28;20297;-69
2023/12/01 01:28:21;;;;;;;2.33;2.13;;;19.50;56.30;;;;;;4993373;28;20323;-68
2023/12/01 01:30:47;;;;;;;2.77;2.30;;;19.50;56.20;;;;;;4993499;28;20176;-69
2023/12/01 01:33:12;;;;;;;3.63;2.90;;;19.50;56.20;;;;;;4994691;28;20239;-69
2023/12/01 01:35:38;;;;;;;3.80;2.50;;;19.50;56.20;;;;;;4994763;28;20197;-69
2023/12/01 01:38:04;;;;;;;2.70;2.10;;;19.50;56.30;;;;;;4994796;28;20177;-69
2023/12/01 01:40:29;;;;;;;3.50;2.57;;;19.50;56.30;;;;;;4994932;28;20186;-69
2023/12/01 01:42:55;;;;;;;3.90;2.37;;;19.50;56.30;;;;;;4994659;28;20208;-68
2023/12/01 01:45:20;;;;;;;5.70;2.73;;;19.50;56.30;;;;;;4994586;28;20962;-69
2023/12/01 01:47:46;;;;;;;3.43;2.97;;;19.50;56.30;;;;;;4994484;28;20177;-69
2023/12/01 01:50:12;;;;;;;3.40;2.80;;;19.50;56.30;;;;;;4994842;28;20176;-70
2023/12/01 01:52:40;;;;;;;3.07;2.30;;;19.50;56.30;;;;;;4994590;28;20471;-69
2023/12/01 01:55:07;;;;;;;3.93;2.73;;;19.50;56.30;;;;;;4994333;28;20197;-69
2023/12/01 01:57:41;;;;;;;4.00;2.60;;;19.50;56.30;;;;;;4994357;28;20416;-69
2023/12/01 02:00:07;;;;;;;3.73;2.97;;;19.50;56.30;;;;;;4993026;28;20923;-69
2023/12/01 02:02:35;;;;;;;2.57;2.33;;;19.50;56.30;;;;;;4994219;28;20419;-69
2023/12/01 02:05:01;;;;;;;2.87;2.30;;;19.50;56.30;;;;;;4994265;28;20432;-69
2023/12/01 02:07:27;;;;;;;2.57;2.37;;;19.50;56.30;;;;;;4994253;28;20424;-69
2023/12/01 02:09:57;;;;;;;3.70;2.43;;;19.50;56.30;;;;;;4994469;28;21103;-68
2023/12/01 02:12:22;;;;;;;2.70;2.47;;;19.50;56.30;;;;;;4994261;28;20408;-69
2023/12/01 02:14:48;;;;;;;3.10;2.23;;;19.50;56.30;;;;;;4993942;28;20530;-69
2023/12/01 02:17:13;;;;;;;2.50;2.30;;;19.50;56.30;;;;;;4994290;28;20174;-69
2023/12/01 02:19:39;;;;;;;2.70;2.20;;;19.50;56.30;;;;;;4994050;28;20632;-69
2023/12/01 02:22:05;;;;;;;3.63;2.57;;;19.50;56.80;;;;;;4993955;28;20176;-69
2023/12/01 02:24:31;;;;;;;3.10;2.53;;;19.50;56.30;;;;;;4993868;28;20220;-69
2023/12/01 02:26:56;;;;;;;2.50;2.20;;;19.50;56.80;;;;;;4992370;28;20478;-69
2023/12/01 02:29:22;;;;;;;3.43;2.50;;;19.50;56.30;;;;;;4993870;28;20185;-69
2023/12/01 02:31:48;;;;;;;3.53;2.37;;;19.50;56.30;;;;;;4993821;28;20263;-69
2023/12/01 02:34:13;;;;;;;4.10;3.03;;;19.50;56.30;;;;;;4993805;28;20267;-69
2023/12/01 02:36:39;;;;;;;2.13;1.93;;;19.50;56.30;;;;;;4993974;28;20185;-68
2023/12/01 02:39:07;;;;;;;4.03;2.50;;;19.50;56.30;;;;;;4992814;28;20169;-68
2023/12/01 02:41:33;;;;;;;2.57;2.37;;;19.50;56.30;;;;;;4993605;28;20256;-69
2023/12/01 02:43:58;;;;;;;2.57;2.37;;;19.50;56.30;;;;;;4993542;28;20498;-69
2023/12/01 02:46:24;;;;;;;4.27;3.03;;;19.50;56.30;;;;;;4992072;28;20637;-69
2023/12/01 02:48:50;;;;;;;3.30;2.40;;;19.50;56.30;;;;;;4993431;28;20204;-69
2023/12/01 02:51:16;;;;;;;4.13;3.10;;;19.50;56.30;;;;;;4993410;28;20185;-69
2023/12/01 02:53:41;;;;;;;2.77;2.30;;;19.50;56.30;;;;;;4993300;28;20452;-69
2023/12/01 02:56:08;;;;;;;2.73;2.43;;;19.50;56.30;;;;;;4993674;28;20201;-69
2023/12/01 02:58:33;;;;;;;2.60;2.10;;;19.50;56.30;;;;;;4993468;28;20181;-68
2023/12/01 03:01:00;;;;;;;3.40;2.40;;;19.50;56.30;;;;;;4993185;28;20408;-68
2023/12/01 03:03:25;;;;;;;2.50;2.23;;;19.50;56.30;;;;;;4993420;28;20216;-69
2023/12/01 03:05:51;;;;;;;2.10;1.90;;;19.50;56.30;;;;;;4993118;28;20436;-68
2023/12/01 03:08:16;;;;;;;2.73;2.30;;;19.50;56.30;;;;;;4993078;28;20177;-69
2023/12/01 03:10:42;;;;;;;2.70;2.27;;;19.50;56.30;;;;;;4993020;28;20223;-69
2023/12/01 03:13:08;;;;;;;3.00;2.20;;;19.50;56.30;;;;;;4992899;28;20197;-68
2023/12/01 03:15:34;;;;;;;3.20;2.70;;;19.50;56.30;;;;;;4992946;28;20198;-68
2023/12/01 03:18:00;;;;;;;5.03;2.50;;;19.50;56.40;;;;;;4991598;28;20180;-68
2023/12/01 03:20:27;;;;;;;3.50;2.60;;;19.50;56.30;;;;;;4992822;28;20416;-70
2023/12/01 03:22:53;;;;;;;2.80;2.10;;;19.50;56.30;;;;;;4992803;28;20254;-69
2023/12/01 03:25:19;;;;;;;3.70;2.00;;;19.50;56.30;;;;;;4992712;28;20455;-68
2023/12/01 03:27:46;;;;;;;2.00;1.77;;;19.50;56.30;;;;;;4992723;28;20981;-68
2023/12/01 03:30:13;;;;;;;2.40;2.00;;;19.50;56.30;;;;;;4992714;28;20176;-68
2023/12/01 03:32:49;;;;;;;2.40;2.00;;;19.50;56.30;;;;;;4992485;28;20412;-69
2023/12/01 03:35:20;;;;;;;3.40;2.37;;;19.50;56.30;;;;;;4992555;28;20431;-69
2023/12/01 03:37:46;;;;;;;2.33;1.97;;;19.50;56.30;;;;;;4992609;28;20396;-69
2023/12/01 03:40:12;;;;;;;2.47;2.03;;;19.50;56.30;;;;;;4992515;28;20405;-68
2023/12/01 03:42:46;;;;;;;2.50;2.10;;;19.50;56.30;;;;;;4992441;28;20404;-69
2023/12/01 03:45:12;;;;;;;2.50;2.20;;;19.50;56.30;;;;;;4992613;28;20478;-69
2023/12/01 03:47:44;;;;;;;2.50;2.10;;;19.50;56.30;;;;;;4992119;28;20404;-69
2023/12/01 03:50:11;;;;;;;2.30;2.10;;;19.50;56.30;;;;;;4992291;28;20396;-69
2023/12/01 03:52:41;;;;;;;2.77;2.00;;;19.50;56.40;;;;;;4991103;28;20508;-68
2023/12/01 03:55:08;;;;;;;2.67;1.77;;;19.40;56.20;;;;;;4992153;28;20442;-69
2023/12/01 03:57:34;;;;;;;2.20;1.90;;;19.50;56.30;;;;;;4992117;28;20793;-69
2023/12/01 03:59:59;;;;;;;3.13;2.30;;;19.50;56.30;;;;;;4992327;28;20427;-69
2023/12/01 04:02:25;;;;;;;3.30;2.43;;;19.50;56.30;;;;;;4990612;28;20200;-68
2023/12/01 04:04:51;;;;;;;2.37;1.90;;;19.50;56.30;;;;;;4992054;28;20200;-69
2023/12/01 04:07:16;;;;;;;2.43;1.90;;;19.50;56.30;;;;;;4991927;28;20231;-69
2023/12/01 04:09:42;;;;;;;2.20;1.80;;;19.50;56.30;;;;;;4991944;28;20267;-69
2023/12/01 04:12:08;;;;;;;2.70;2.30;;;19.50;56.40;;;;;;4991842;28;20185;-69
2023/12/01 04:14:34;;;;;;;2.70;2.10;;;19.50;56.40;;;;;;4991696;28;20471;-69
2023/12/01 04:17:08;;;;;;;2.70;2.23;;;19.50;56.40;;;;;;4989113;28;20273;-68
2023/12/01 04:19:41;;;;;;;2.33;2.03;;;19.50;56.30;;;;;;4985992;28;20192;-68
2023/12/01 04:22:07;;;;;;;2.97;2.37;;;19.50;56.30;;;;;;4991074;28;20435;-69
2023/12/01 04:24:33;;;;;;;2.50;2.10;;;19.50;56.30;;;;;;4990179;28;20428;-68
2023/12/01 04:27:03;;;;;;;2.70;2.23;;;19.50;56.30;;;;;;4991264;28;20432;-69
2023/12/01 04:29:31;;;;;;;2.17;1.97;;;19.50;56.30;;;;;;4991379;28;20416;-68
2023/12/01 04:31:57;;;;;;;3.07;2.40;;;19.50;56.30;;;;;;4991434;28;20506;-69
2023/12/01 04:34:23;;;;;;;3.10;2.13;;;19.40;56.20;;;;;;4991248;28;20526;-68
2023/12/01 04:36:52;;;;;;;2.30;2.10;;;19.40;56.20;;;;;;4991348;28;20412;-69
2023/12/01 04:39:18;;;;;;;2.63;2.33;;;19.40;56.20;;;;;;4991261;28;20223;-69
2023/12/01 04:41:44;;;;;;;2.80;2.13;;;19.40;56.20;;;;;;4991257;28;20412;-69
2023/12/01 04:44:09;;;;;;;3.73;2.30;;;19.40;56.30;;;;;;4991140;28;20192;-68
2023/12/01 04:46:35;;;;;;;3.10;2.20;;;19.50;56.40;;;;;;4991272;28;20232;-69
2023/12/01 04:49:01;;;;;;;3.27;2.37;;;19.40;56.30;;;;;;4991183;28;20423;-69
2023/12/01 04:51:26;;;;;;;3.20;2.23;;;19.40;56.30;;;;;;4989852;28;20268;-69
2023/12/01 04:53:52;;;;;;;2.40;1.80;;;19.40;56.30;;;;;;4991047;28;20228;-68
2023/12/01 04:56:17;;;;;;;2.13;1.90;;;19.40;56.30;;;;;;4990975;28;20227;-68
2023/12/01 04:58:43;;;;;;;3.00;2.00;;;19.40;56.30;;;;;;4991079;28;20185;-68
2023/12/01 05:01:09;;;;;;;3.10;2.37;;;19.40;56.30;;;;;;4990989;28;20841;-69
2023/12/01 05:03:36;;;;;;;2.67;2.00;;;19.40;56.30;;;;;;4990568;28;20181;-69
2023/12/01 05:06:02;;;;;;;2.53;2.10;;;19.40;56.30;;;;;;4991104;28;20231;-69
2023/12/01 05:08:27;;;;;;;2.93;1.97;;;19.40;56.30;;;;;;4990951;28;20412;-67
2023/12/01 05:10:54;;;;;;;1.93;1.80;;;19.40;56.30;;;;;;4990884;28;20181;-69
2023/12/01 05:13:20;;;;;;;3.00;2.17;;;19.40;56.30;;;;;;4990797;28;20304;-69
2023/12/01 05:15:46;;;;;;;2.67;1.93;;;19.40;56.30;;;;;;4990840;28;20534;-69
2023/12/01 05:18:12;;;;;;;2.90;2.30;;;19.40;56.30;;;;;;4990814;28;20267;-69
2023/12/01 05:20:38;;;;;;;2.00;1.60;;;19.40;56.40;;;;;;4990556;28;20184;-69
2023/12/01 05:23:07;;;;;;;3.47;2.13;;;19.40;56.40;;;;;;4990747;28;20185;-68
2023/12/01 05:25:33;;;;;;;2.90;2.13;;;19.30;56.30;;;;;;4989173;28;20550;-69
2023/12/01 05:28:01;;;;;;;2.83;2.00;;;19.30;56.30;;;;;;4990638;28;20575;-69
2023/12/01 05:30:29;;;;;;;2.33;1.77;;;19.40;56.40;;;;;;4990630;28;20499;-68
2023/12/01 05:32:56;;;;;;;2.43;2.00;;;19.30;56.30;;;;;;4990634;28;20416;-69
2023/12/01 05:35:22;;;;;;;3.40;2.03;;;19.30;56.30;;;;;;4989223;28;20955;-68
2023/12/01 05:37:49;;;;;;;2.47;1.80;;;19.30;56.30;;;;;;4990437;28;20417;-69
2023/12/01 05:40:20;;;;;;;2.00;1.80;;;19.30;56.40;;;;;;4990534;28;20506;-69
2023/12/01 05:42:48;;;;;;;5.30;2.13;;;19.40;56.40;;;;;;4990614;28;20408;-68
2023/12/01 05:45:14;;;;;;;2.30;2.07;;;19.30;56.40;;;;;;4990642;28;21018;-69
2023/12/01 05:47:45;;;;;;;3.03;2.30;;;19.30;56.40;;;;;;4990479;28;20487;-68
2023/12/01 05:50:14;;;;;;;2.43;1.97;;;19.30;56.40;;;;;;4990441;28;20407;-68
2023/12/01 05:52:41;;;;;;;2.30;2.10;;;19.30;56.30;;;;;;4990257;28;20419;-68
2023/12/01 05:55:15;;;;;;;3.20;2.07;;;19.30;56.40;;;;;;4990147;28;20583;-69
2023/12/01 05:57:49;;;;;;;2.43;1.97;;;19.30;56.40;;;;;;4990246;28;20415;-68
2023/12/01 06:00:22;;;;;;;2.30;2.10;;;19.30;56.40;;;;;;4990162;28;20413;-68
2023/12/01 06:02:49;;;;;;;2.83;1.90;;;19.40;56.40;;;;;;4990147;28;20399;-69
2023/12/01 06:05:16;;;;;;;2.30;1.70;;;19.30;56.40;;;;;;4990218;28;20639;-70
2023/12/01 06:07:44;;;;;;;3.37;2.57;;;19.30;56.40;;;;;;4990223;28;20503;-68
2023/12/01 06:10:12;;;;;;;2.57;1.80;;;19.30;56.40;;;;;;4990220;28;20466;-68
2023/12/01 06:12:39;;;;;;;2.73;2.10;;;19.40;56.40;;;;;;4990241;28;20758;-69
2023/12/01 06:15:15;;;;;;;2.87;2.10;;;19.30;56.40;;;;;;4991921;28;20511;-68
2023/12/01 06:17:42;;;;;;;3.00;2.10;;;19.40;56.50;;;;;;4993664;28;20570;-68
2023/12/01 06:20:16;;;;;;;3.53;1.90;;;19.40;57.00;;;;;;4993707;28;20571;-69
2023/12/01 06:23:05;;;;;;;3.47;2.00;;;19.40;56.40;;;;;;4993726;28;20782;-68
2023/12/01 06:25:33;;;;;;;4.70;2.70;;;19.40;56.40;;;;;;4993384;28;20905;-69
2023/12/01 06:28:03;;;;;;;2.70;2.03;;;19.40;56.50;;;;;;4993646;28;20481;-67
2023/12/01 06:30:33;;;;;;;3.10;2.20;;;19.40;56.50;;;;;;4993551;28;20407;-67
2023/12/01 06:33:00;;;;;;;3.10;1.90;;;19.40;56.60;;;;;;4993196;28;20546;-68
2023/12/01 06:35:26;;;;;;;2.10;1.90;;;19.40;56.60;;;;;;4993326;28;21014;-69
2023/12/01 06:37:52;;;;;;;6.53;2.23;;;19.40;56.60;;;;;;4993668;28;20414;-69
2023/12/01 06:40:20;;;;;;;3.10;2.23;;;19.40;56.50;;;;;;4993348;28;20416;-68
2023/12/01 06:42:50;;;;;;;1.97;1.57;;;19.40;56.50;;;;;;4993281;28;20901;-68
2023/12/01 06:45:17;;;;;;;2.63;1.77;;;19.40;56.50;;;;;;4993183;28;20816;-69
2023/12/01 06:47:46;;;;;;;5.93;2.03;;;19.40;56.40;;;;;;4993140;28;20409;-68
2023/12/01 06:50:14;;;;;;;4.40;2.00;;;19.50;56.50;;;;;;4993086;28;20423;-68
2023/12/01 06:52:40;;;;;;;2.20;1.70;;;19.50;56.40;;;;;;4992863;28;20405;-68
2023/12/01 06:55:07;;;;;;;2.20;1.90;;;19.50;56.40;;;;;;4992980;28;20436;-69
2023/12/01 06:57:41;;;;;;;3.23;1.93;;;19.50;56.40;;;;;;4992991;28;20511;-68
2023/12/01 07:00:08;;;;;;;2.90;1.90;;;19.50;56.40;;;;;;4993375;28;20487;-67
2023/12/01 07:02:40;;;;;;;3.07;1.87;;;19.50;56.40;;;;;;4993077;28;20428;-68
2023/12/01 07:05:07;;;;;;;3.00;2.00;;;19.50;56.40;;;;;;4993012;28;20444;-70
2023/12/01 07:07:33;;;;;;;2.47;1.60;;;19.50;56.40;;;;;;4993288;28;20460;-69
2023/12/01 07:09:59;;;;;;;2.87;2.07;;;19.50;56.40;;;;;;4992970;28;20912;-69
2023/12/01 07:12:25;;;;;;;3.83;1.87;;;19.50;56.30;;;;;;4992926;28;20316;-69
2023/12/01 07:14:50;;;;;;;2.47;1.97;;;19.60;56.40;;;;;;4992920;28;20204;-69
2023/12/01 07:17:16;;;;;;;2.30;1.70;;;19.60;56.40;;;;;;4992966;28;20184;-69
2023/12/01 07:19:42;;;;;;;2.03;1.83;;;19.60;56.40;;;;;;4992889;28;20176;-69
2023/12/01 07:22:07;;;;;;;1.83;1.43;;;19.60;56.40;;;;;;4992778;28;20205;-69
2023/12/01 07:24:33;;;;;;;4.60;2.20;;;19.60;56.40;;;;;;4991545;28;20578;-68
2023/12/01 07:27:00;;;;;;;1.93;1.77;;;19.60;56.30;;;;;;4992117;28;20197;-69
2023/12/01 07:29:26;;;;;;;2.60;2.10;;;19.60;56.30;;;;;;4992017;28;20424;-70
2023/12/01 07:31:51;;;;;;;3.50;1.80;;;19.60;56.30;;;;;;4990976;28;20954;-69
2023/12/01 07:34:18;;;;;;;2.60;1.87;;;19.60;56.30;;;;;;4992193;28;20208;-69
2023/12/01 07:36:44;;;;;;;2.40;2.20;;;19.60;56.30;;;;;;4990624;28;20181;-69
2023/12/01 07:39:09;;;;;;;2.27;1.77;;;19.60;56.30;;;;;;4990911;28;20556;-69
2023/12/01 07:41:35;;;;;;;2.07;1.80;;;19.70;56.40;;;;;;4991326;28;20451;-70
2023/12/01 07:44:02;;;;;;;1.80;1.63;;;19.70;56.40;;;;;;4992071;28;20177;-69
2023/12/01 07:46:31;;;;;;;2.07;1.70;;;19.70;56.40;;;;;;4992267;28;20231;-69
2023/12/01 07:48:58;;;;;;;2.10;1.70;;;19.70;56.30;;;;;;4992203;28;20416;-69
2023/12/01 07:51:25;;;;;;;1.97;1.60;;;19.70;56.30;;;;;;4992381;28;20423;-68
2023/12/01 07:53:51;;;;;;;2.27;2.03;;;19.70;56.30;;;;;;4992298;28;20456;-69
2023/12/01 07:56:23;;;;;;;3.20;2.30;;;19.70;56.30;;;;;;4992068;28;20954;-69
2023/12/01 07:58:50;;;;;;;3.00;2.37;;;19.70;56.30;;;;;;4992126;28;20227;-68
2023/12/01 08:01:16;;;;;;;2.20;1.50;;;19.70;56.30;;;;;;4992243;28;20427;-70
2023/12/01 08:03:46;;;;;;;2.07;1.70;;;19.70;56.30;;;;;;4992273;28;20448;-69
2023/12/01 08:06:13;;;;;;;2.83;1.93;;;19.70;56.30;;;;;;4991864;28;20434;-69
2023/12/01 08:08:39;;;;;;;2.20;1.63;;;19.70;56.40;;;;;;4992107;28;20420;-69
2023/12/01 08:11:05;;;;;;;1.93;1.73;;;19.70;56.40;;;;;;4992106;28;20482;-69
2023/12/01 08:13:31;;;;;;;3.23;2.03;;;19.70;56.40;;;;;;4991734;28;20460;-69
2023/12/01 08:15:56;;;;;;;2.17;1.83;;;19.70;56.40;;;;;;4991660;28;20237;-69
2023/12/01 08:18:22;;;;;;;1.80;1.67;;;19.70;56.40;;;;;;4991701;28;20173;-69
2023/12/01 08:20:49;;;;;;;2.23;1.70;;;19.70;56.40;;;;;;4991629;28;20173;-69
2023/12/01 08:23:15;;;;;;;2.77;1.90;;;19.70;56.40;;;;;;4991626;28;20217;-69
2023/12/01 08:25:42;;;;;;;2.70;1.97;;;19.70;56.40;;;;;;4991426;28;20459;-69
2023/12/01 08:28:07;;;;;;;2.03;1.80;;;19.70;56.40;;;;;;4991461;28;20428;-69
2023/12/01 08:30:33;;;;;;;2.17;1.50;;;19.70;56.40;;;;;;4991426;28;20435;-69
2023/12/01 08:32:58;;;;;;;2.90;2.53;;;19.70;56.40;;;;;;4991395;28;20188;-68
2023/12/01 08:35:24;;;;;;;1.90;1.70;;;19.70;56.40;;;;;;4990015;28;20192;-67
2023/12/01 08:37:52;;;;;;;2.50;1.87;;;19.70;56.40;;;;;;4990673;28;20181;-68
2023/12/01 08:40:18;;;;;;;2.47;1.80;;;19.70;56.40;;;;;;4991324;28;20169;-68
2023/12/01 08:42:45;;;;;;;2.93;1.63;;;19.70;56.40;;;;;;4991293;28;20419;-68
2023/12/01 08:45:10;;;;;;;1.70;1.50;;;19.70;56.40;;;;;;4991177;28;20196;-68
2023/12/01 08:47:38;;;;;;;1.90;1.67;;;19.70;56.40;;;;;;4991169;28;20407;-69
2023/12/01 08:50:05;;;;;;;2.57;1.90;;;19.70;56.40;;;;;;4991131;28;20177;-68
2023/12/01 08:52:30;;;;;;;2.33;1.60;;;19.70;56.40;;;;;;4989766;28;20428;-69
2023/12/01 08:54:56;;;;;;;2.20;2.00;;;19.70;56.40;;;;;;4990940;28;20542;-69
2023/12/01 08:57:22;;;;;;;1.83;1.57;;;19.70;56.40;;;;;;4989825;28;20180;-68
2023/12/01 08:59:49;;;;;;;1.93;1.60;;;19.70;56.50;;;;;;4989746;28;20183;-68
2023/12/01 09:02:14;;;;;;;3.47;2.10;;;19.70;56.50;;;;;;4989702;28;20408;-69
2023/12/01 09:04:40;;;;;;;2.00;1.80;;;19.70;56.40;;;;;;4990869;28;20535;-69
2023/12/01 09:07:05;;;;;;;2.03;1.83;;;19.70;56.40;;;;;;4991203;28;20208;-68
2023/12/01 09:09:31;;;;;;;4.23;1.90;;;19.70;56.40;;;;;;4991360;28;20181;-68
2023/12/01 09:11:56;;;;;;;2.27;1.70;;;19.70;56.40;;;;;;4990866;28;20172;-69
2023/12/01 09:14:22;;;;;;;2.37;1.40;;;19.70;56.40;;;;;;4989484;28;20693;-68
2023/12/01 09:16:48;;;;;;;2.60;1.60;;;19.70;56.50;;;;;;4990777;28;20175;-67
2023/12/01 09:19:13;;;;;;;2.40;1.70;;;19.70;56.50;;;;;;4990651;28;20209;-68
2023/12/01 09:21:39;;;;;;;2.77;1.80;;;19.70;56.50;;;;;;4989274;28;20223;-69
2023/12/01 09:24:05;;;;;;;2.73;1.70;;;19.70;56.50;;;;;;4990800;28;20181;-68
2023/12/01 09:26:31;;;;;;;1.67;1.50;;;19.70;56.50;;;;;;4989039;28;20244;-68
2023/12/01 09:28:57;;;;;;;2.73;1.70;;;19.70;56.50;;;;;;4989205;28;20499;-68
2023/12/01 09:31:23;;;;;;;2.13;1.60;;;19.70;56.50;;;;;;4989147;28;20420;-68
2023/12/01 09:33:49;;;;;;;3.10;2.53;;;19.70;56.50;;;;;;4989042;28;20288;-68
2023/12/01 09:36:17;;;;;;;1.93;1.67;;;19.70;56.50;;;;;;4990449;28;20428;-68
2023/12/01 09:38:44;;;;;;;1.70;1.40;;;19.70;56.50;;;;;;4990443;28;20173;-68
2023/12/01 09:41:14;;;;;;;2.13;1.70;;;19.70;56.50;;;;;;4990524;28;20891;-69
2023/12/01 09:43:43;;;;;;;1.93;1.73;;;19.70;56.50;;;;;;4989357;28;20490;-69
2023/12/01 09:46:10;;;;;;;1.70;1.60;;;19.70;56.50;;;;;;4990274;28;20985;-68
2023/12/01 09:48:39;;;;;;;2.57;1.70;;;19.70;56.50;;;;;;4974145;28;20423;-69
2023/12/01 09:51:05;;;;;;;2.10;1.73;;;19.70;56.50;;;;;;4994403;28;20408;-68
2023/12/01 09:53:31;;;;;;;2.13;1.50;;;19.70;56.50;;;;;;4993143;28;20513;-69
2023/12/01 09:55:56;;;;;;;2.43;1.57;;;19.60;56.50;;;;;;4992660;28;20950;-69
2023/12/01 09:58:25;;;;;;;2.50;1.60;;;19.70;56.50;;;;;;4994244;28;20173;-67
2023/12/01 10:00:51;;;;;;;2.40;2.00;;;19.70;56.50;;;;;;4994172;28;20169;-67
2023/12/01 10:03:16;;;;;;;1.90;1.57;;;19.60;56.50;;;;;;4992782;28;20459;-68
2023/12/01 10:05:43;;;;;;;1.90;1.50;;;19.70;56.50;;;;;;4992700;28;20679;-67
2023/12/01 10:08:10;;;;;;;1.80;1.30;;;19.70;56.50;;;;;;4994195;28;20311;-67
2023/12/01 10:10:35;;;;;;;1.50;1.40;;;19.70;56.50;;;;;;4994001;28;20444;-68
2023/12/01 10:13:04;;;;;;;2.70;1.73;;;19.70;56.50;;;;;;4993865;28;20418;-68
2023/12/01 10:15:33;;;;;;;1.60;1.40;;;19.70;56.50;;;;;;4993850;28;20289;-69
2023/12/01 10:18:12;;;;;;;2.70;1.60;;;19.70;56.50;;;;;;4994157;28;20431;-68
2023/12/01 10:20:39;;;;;;;1.67;1.43;;;19.70;56.40;;;;;;4994129;28;21315;-67
2023/12/01 10:23:19;;;;;;;1.90;1.37;;;19.70;56.40;;;;;;4993730;28;20416;-68
2023/12/01 10:25:49;;;;;;;2.00;1.60;;;19.70;56.40;;;;;;4993597;28;20514;-68
2023/12/01 10:28:16;;;;;;;1.77;1.50;;;19.70;56.40;;;;;;4993713;28;20803;-68
2023/12/01 10:30:55;;;;;;;3.90;1.63;;;19.70;56.40;;;;;;4993884;28;20426;-68
2023/12/01 10:33:21;;;;;;;2.17;1.67;;;19.70;56.50;;;;;;4993742;28;20463;-67
2023/12/01 10:36:20;;;;;;;2.17;1.73;;;19.70;56.40;;;;;;4993534;28;20432;-66
2023/12/01 10:38:47;;;;;;;1.33;1.20;;;19.70;56.40;;;;;;4981517;28;20432;-68
2023/12/01 10:41:16;;;;;;;1.57;1.37;;;19.70;56.40;;;;;;4993392;28;20420;-68
2023/12/01 10:43:45;;;;;;;1.60;1.30;;;19.70;56.40;;;;;;4993408;28;20420;-69
2023/12/01 10:46:13;;;;;;;1.43;1.20;;;19.70;56.40;;;;;;4993294;28;21060;-68
2023/12/01 10:48:39;;;;;;;2.43;1.57;;;19.70;56.40;;;;;;4993318;28;20412;-68
2023/12/01 10:51:05;;;;;;;2.13;1.43;;;19.80;56.50;;;;;;4993316;28;20427;-68
2023/12/01 10:53:31;;;;;;;1.97;1.40;;;19.80;56.60;;;;;;4993424;28;20463;-68
2023/12/01 10:56:02;;;;;;;1.70;1.47;;;19.80;56.60;;;;;;4993134;28;20436;-69
2023/12/01 10:58:30;;;;;;;3.77;1.53;;;19.80;56.60;;;;;;4993752;28;20161;-68
2023/12/01 11:00:59;;;;;;;1.73;1.20;;;19.70;56.50;;;;;;4991147;28;20431;-68
2023/12/01 11:03:29;;;;;;;1.73;1.47;;;19.80;56.60;;;;;;4993041;28;20412;-66
2023/12/01 11:06:03;;;;;;;2.13;1.70;;;19.80;56.60;;;;;;4993045;28;20532;-68
2023/12/01 11:08:51;;;;;;;2.00;1.53;;;19.80;56.60;;;;;;4993158;28;20418;-68
2023/12/01 11:11:21;;;;;;;1.90;1.70;;;19.80;56.60;;;;;;4993036;28;20516;-68
2023/12/01 11:14:05;;;;;;;2.00;1.80;;;19.80;56.60;;;;;;4993204;28;20467;-67
2023/12/01 11:16:33;;;;;;;2.00;1.57;;;19.80;56.60;;;;;;4992831;28;20461;-68
2023/12/01 11:18:59;;;;;;;1.97;1.50;;;19.70;56.60;;;;;;4993105;28;20451;-68
2023/12/01 11:21:25;;;;;;;2.00;1.40;;;19.80;56.60;;;;;;4992788;28;20953;-69
2023/12/01 11:23:51;;;;;;;1.77;1.37;;;19.70;56.50;;;;;;4992836;28;20181;-69
2023/12/01 11:26:17;;;;;;;3.03;2.23;;;19.80;57.20;;;;;;4992696;28;20224;-69
2023/12/01 11:28:45;;;;;;;1.80;1.40;;;19.80;56.60;;;;;;4992667;28;20423;-69
2023/12/01 11:31:23;;;;;;;1.47;1.03;;;19.70;56.50;;;;;;4992772;28;20423;-68
2023/12/01 11:33:53;;;;;;;2.20;2.00;;;19.70;56.60;;;;;;4992519;28;20455;-68
2023/12/01 11:36:22;;;;;;;1.50;1.20;;;19.70;56.60;;;;;;4992747;28;20432;-68
2023/12/01 11:41:41;;;;;;;2.47;1.70;;;19.70;56.50;;;;;;4992519;28;20494;-68
2023/12/01 11:44:26;;;;;;;1.40;1.20;;;19.70;56.60;;;;;;4992579;28;21131;-68
2023/12/01 11:47:00;;;;;;;1.63;1.47;;;19.70;56.60;;;;;;4992293;28;20163;-69
2023/12/01 11:49:29;;;;;;;2.10;1.60;;;19.70;56.60;;;;;;4992523;28;20416;-69
2023/12/01 11:52:01;;;;;;;2.37;1.60;;;19.70;56.60;;;;;;4990966;28;20934;-70
2023/12/01 11:54:27;;;;;;;1.70;1.30;;;19.70;56.60;;;;;;4992099;28;20456;-69
2023/12/01 11:56:57;;;;;;;1.77;1.20;;;19.70;56.60;;;;;;4992420;28;20471;-68
2023/12/01 11:59:24;;;;;;;1.80;1.60;;;19.70;56.60;;;;;;4992181;28;20173;-69
2023/12/01 12:01:53;;;;;;;2.20;2.00;;;19.70;56.60;;;;;;4992096;28;20942;-68
2023/12/01 12:04:18;;;;;;;2.00;1.43;;;19.70;56.60;;;;;;4991876;28;20412;-69
2023/12/01 12:06:44;;;;;;;2.07;1.57;;;19.70;56.60;;;;;;4991976;28;20419;-69
2023/12/01 12:09:19;;;;;;;1.63;1.40;;;19.70;56.60;;;;;;4991933;28;20177;-71
2023/12/01 12:11:53;;;;;;;1.37;1.23;;;19.70;56.60;;;;;;4991090;28;20677;-69
2023/12/01 12:14:21;;;;;;;2.37;1.87;;;19.70;56.60;;;;;;4991560;28;20851;-67
2023/12/01 12:16:47;;;;;;;2.13;1.60;;;19.70;56.60;;;;;;4992055;28;20427;-69
2023/12/01 12:19:12;;;;;;;2.60;1.50;;;19.70;56.60;;;;;;4991712;28;20417;-69
2023/12/01 12:21:39;;;;;;;1.60;1.30;;;19.70;56.50;;;;;;4991771;28;20551;-69
2023/12/01 12:24:05;;;;;;;1.80;1.50;;;19.70;56.60;;;;;;4991715;28;20242;-68
2023/12/01 12:26:31;;;;;;;1.70;1.50;;;19.70;56.60;;;;;;4991407;28;20475;-70
2023/12/01 12:29:04;;;;;;;2.27;1.50;;;19.70;56.60;;;;;;4991057;28;20420;-70
2023/12/01 12:31:32;;;;;;;2.23;1.80;;;19.80;56.60;;;;;;4990051;28;20196;-69
2023/12/01 12:33:59;;;;;;;1.40;1.20;;;19.70;56.60;;;;;;4991308;28;20452;-69
2023/12/01 12:36:29;;;;;;;1.47;1.27;;;19.70;56.60;;;;;;4991300;28;20931;-69
2023/12/01 12:38:59;;;;;;;1.57;1.47;;;19.70;56.60;;;;;;4991322;28;20412;-68
2023/12/01 12:41:30;;;;;;;2.47;1.67;;;19.70;56.60;;;;;;4991524;28;20416;-68
2023/12/01 12:43:58;;;;;;;2.00;1.60;;;19.70;56.60;;;;;;4991141;28;20785;-67
2023/12/01 12:46:24;;;;;;;2.43;2.20;;;19.70;56.60;;;;;;4989656;28;20833;-68
2023/12/01 12:48:57;;;;;;;4.10;2.33;;;19.70;56.60;;;;;;4991440;28;21121;-68
2023/12/01 12:51:28;;;;;;;3.83;2.70;;;19.70;56.60;;;;;;4989697;28;20428;-69